Empire, Colorado
Current Conditions -  °F | °C
As of 5:35 PM on Saturday 22 Nov 2014 (Local Time) from K0CO Reporting Station
Haze Haze  
Wind Chill:   Ceiling: 100
Heat Index: 19°   Visibility: 1.2mi
Dew Point: 14°   Wind: 30mph
Humidity: 80%   Direction: 290°WNW
Pressure: 29.82"   Gusts: NA
Location:  39.76°N, 105.68°W
Report Text: K0CO 230035Z AUTO 29026KT 1 1/4SM HZ BKN001 BKN009 OVC015 M07/M10 A2982 RMK AO2
Loading
Personal Weather Stations






























Interactive Weather Map New forecast layout! Learn more

10-Day Weather Forecast

Advertisements
Track Severe Weather on mobile